createdAt,value
2022-11-27T15:21:53.960Z,75.48
2022-11-27T15:24:36.414Z,76.54
2022-11-27T15:27:15.926Z,77.91
2022-11-27T15:30:12.338Z,77.67
2022-11-27T15:32:53.629Z,77.84
2022-11-27T15:35:36.416Z,77.27
2022-11-27T15:38:10.512Z,77.36
2022-11-27T15:40:40.792Z,77.46
2022-11-27T15:43:16.418Z,76.93
2022-11-27T15:45:44.741Z,77.07
2022-11-27T15:48:18.345Z,76.42
2022-11-27T15:50:51.352Z,76.13
2022-11-27T15:53:19.397Z,75.52
2022-11-27T15:55:47.040Z,75.57
2022-11-27T15:58:15.938Z,75.34
2022-11-27T16:00:43.656Z,75.26
2022-11-27T16:03:11.389Z,74.49
2022-11-27T16:05:39.475Z,74.65
2022-11-27T16:08:17.767Z,72.77
2022-11-27T16:10:45.418Z,73.85
2022-11-27T16:13:13.046Z,73.95
2022-11-27T16:15:40.665Z,73.46
2022-11-27T16:18:08.314Z,73.18
2022-11-27T16:20:35.968Z,73.28
2022-11-27T16:23:03.648Z,73.46
2022-11-27T16:25:31.309Z,73.12
2022-11-27T16:28:03.042Z,73.49
2022-11-27T16:30:31.734Z,72.66
2022-11-27T16:32:59.382Z,71.88
2022-11-27T16:35:27.294Z,72.85
2022-11-27T16:37:55.246Z,72.38
2022-11-27T16:40:23.917Z,72.72
2022-11-27T16:42:51.547Z,72.66
2022-11-27T16:45:19.670Z,72.26
2022-11-27T16:47:48.841Z,72.62
2022-11-27T16:50:17.918Z,72.55
2022-11-27T16:52:54.187Z,72.09
2022-11-27T16:55:26.372Z,71.49
2022-11-27T16:57:54.815Z,71.18
2022-11-27T17:00:24.150Z,72.06
2022-11-27T17:02:54.056Z,72.17
2022-11-27T17:05:23.009Z,72.38
2022-11-27T17:07:50.831Z,72.26
2022-11-27T17:10:18.552Z,71.80
2022-11-27T17:12:46.213Z,71.88
2022-11-27T17:15:14.422Z,71.74
2022-11-27T17:17:43.513Z,71.84
2022-11-27T17:20:11.398Z,71.49
2022-11-27T17:22:39.069Z,71.89
2022-11-27T17:25:10.564Z,71.50
2022-11-27T17:27:38.581Z,71.33
2022-11-27T17:30:06.961Z,71.92
2022-11-27T17:32:34.714Z,71.18
2022-11-27T17:35:02.809Z,71.28
2022-11-27T17:37:30.590Z,71.60
2022-11-27T17:39:58.220Z,71.39
2022-11-27T17:42:25.810Z,70.79
2022-11-27T17:44:53.439Z,71.08
2022-11-27T17:47:21.106Z,70.89
2022-11-27T17:49:49.611Z,70.22
2022-11-27T17:52:17.320Z,70.59
2022-11-27T17:54:45.096Z,70.20
2022-11-27T17:57:13.618Z,70.46
2022-11-27T17:59:41.745Z,69.82
2022-11-27T18:02:11.646Z,70.52
2022-11-27T18:04:40.583Z,70.38
2022-11-27T18:07:08.680Z,70.30
2022-11-27T18:09:36.502Z,70.21
2022-11-27T18:12:06.537Z,69.88
2022-11-27T18:14:35.502Z,70.10
2022-11-27T18:17:05.221Z,70.27
2022-11-27T18:19:33.052Z,69.98
2022-11-27T18:22:00.674Z,70.14
2022-11-27T18:24:28.539Z,69.92
2022-11-27T18:27:11.772Z,69.51
2022-11-27T18:29:42.977Z,68.99
2022-11-27T18:32:12.208Z,69.64
2022-11-27T18:34:40.950Z,69.60
2022-11-27T18:37:09.434Z,69.55
2022-11-27T18:39:37.987Z,69.27
2022-11-27T18:42:07.126Z,69.21
2022-11-27T18:44:44.804Z,69.28
2022-11-27T18:47:14.972Z,68.92
2022-11-27T18:49:45.381Z,69.25
2022-11-27T18:52:13.847Z,69.27
2022-11-27T18:54:41.763Z,69.57
2022-11-27T18:57:11.301Z,69.43
2022-11-27T18:59:40.359Z,69.44
2022-11-27T19:02:09.408Z,69.27
2022-11-27T19:04:40.533Z,69.95
2022-11-27T19:07:08.371Z,69.45
2022-11-27T19:09:36.403Z,69.64
2022-11-27T19:12:04.821Z,69.70
2022-11-27T19:14:34.129Z,69.82
2022-11-27T19:17:01.915Z,69.68
2022-11-27T19:22:21.146Z,69.19
2022-11-27T19:24:49.259Z,69.38
2022-11-27T19:27:17.171Z,69.85
2022-11-27T19:29:45.012Z,69.73
2022-11-27T19:32:13.212Z,69.70
2022-11-27T19:34:41.601Z,69.94
2022-11-27T19:37:10.156Z,70.15
2022-11-27T19:39:38.025Z,70.14
2022-11-27T19:42:06.736Z,70.30
2022-11-27T19:44:35.453Z,70.20
2022-11-27T19:47:03.969Z,70.22
2022-11-27T19:49:31.863Z,70.39
2022-11-27T19:52:00.164Z,70.13
2022-11-27T19:54:29.883Z,70.43
2022-11-27T19:56:58.004Z,70.38
2022-11-27T19:59:26.725Z,70.47
2022-11-27T20:01:57.361Z,70.32
2022-11-27T20:04:29.356Z,70.44
2022-11-27T20:06:57.076Z,70.37
2022-11-27T20:09:24.877Z,70.09
2022-11-27T20:11:52.711Z,70.21
2022-11-27T20:14:20.725Z,70.24
2022-11-27T20:16:48.537Z,70.22
2022-11-27T20:19:17.210Z,70.73
2022-11-27T20:21:45.859Z,70.60
2022-11-27T20:24:14.898Z,70.80
2022-11-27T20:26:43.484Z,70.82
2022-11-27T20:29:15.783Z,70.83
2022-11-27T20:31:45.181Z,70.87
2022-11-27T20:34:22.606Z,70.92
2022-11-27T20:36:50.448Z,71.05
2022-11-27T20:39:21.730Z,71.01
2022-11-27T20:41:52.258Z,70.91
2022-11-27T20:44:22.465Z,71.01
2022-11-27T20:46:51.022Z,71.12
2022-11-27T20:49:18.739Z,70.88
2022-11-27T20:51:49.237Z,71.12
2022-11-27T20:54:19.892Z,71.17
2022-11-27T20:56:51.213Z,71.07
2022-11-27T20:59:20.005Z,70.68
2022-11-27T21:01:49.055Z,70.85
2022-11-27T21:04:25.879Z,70.86
2022-11-27T21:06:57.842Z,71.31
2022-11-27T21:09:25.804Z,71.05
2022-11-27T21:11:54.218Z,71.14
2022-11-27T21:14:21.947Z,71.21
2022-11-27T21:16:51.335Z,71.00
2022-11-27T21:19:25.520Z,71.09
2022-11-27T21:21:55.694Z,71.30
2022-11-27T21:24:26.160Z,71.30
2022-11-27T21:26:54.003Z,71.35
2022-11-27T21:29:25.557Z,71.33
2022-11-27T21:31:55.555Z,71.37
